Johannesburg, South Africa
Current Conditions -  °F | °C
As of 1:00 PM on Thursday 23 Oct 2014 (Local Time) from FAOR Reporting Station
Clear Clear  
Wind Chill: 75°   Ceiling: Unl
Heat Index: 75°   Visibility: 6mi
Dew Point: 46°   Wind: 10mph
Humidity: 36%   Direction: 310°NW
Pressure: 30.18"   Gusts: NA
Location:  26.19°S, 28.04°E
Report Text: FAOR 231100Z 31009KT 270V350 CAVOK 24/08 Q1022 NOSIG
Loading
Personal Weather Stations






























Interactive Weather Map
Tropical Storm Tracking
New forecast layout! Learn more

10-Day Weather Forecast

Advertisements
Track Severe Weather on mobile